Time;durP1;ratioP1;P1;durP2;ratioP2;P2;SDS_P1;SDS_P2;PMS_P1;PMS_P2;Temp;Humidity;BMP_temperature;BMP_pressure;BME280_temperature;BME280_humidity;BME280_pressure;Samples;Min_cycle;Max_cycle;Signal;HPM_P1;HPM_P2
2021/01/06 08:56:43;;;;;;;;;;;;;;;18.62;39.52;99589.78;4429033;31;20096;-80
2021/01/06 08:59:11;;;;;;;;;;;;;;;18.62;39.52;99589.78;4407101;32;19931;-72
2021/01/06 09:01:37;;;;;;;;;;;;;;;18.74;38.20;99600.41;4410980;32;19951;-69
2021/01/06 09:04:03;;;;;;;;;;;;;;;19.20;37.21;99596.28;4410616;32;19974;-68
2021/01/06 09:06:30;;;;;;;;;;;;;;;19.51;36.49;99601.72;4415696;32;19969;-71
2021/01/06 09:08:56;;;;;;;;;;;;;;;19.77;35.94;99598.28;4414692;32;19969;-68
2021/01/06 09:11:22;;;;;;;;;;;;;;;19.95;35.71;99602.75;4416564;32;19959;-73
2021/01/06 09:13:48;;;;;;;;;;;;;;;20.01;35.56;99599.25;4419627;32;19985;-74
2021/01/06 09:16:15;;;;;;;;;;;;;;;20.13;35.50;99596.59;4420252;32;20003;-75
2021/01/06 09:18:41;;;;;;;;;;;;;;;20.27;35.76;99603.66;4419855;32;19950;-75
2021/01/06 09:21:07;;;;;;;;;;;;;;;20.37;35.59;99602.78;4421705;32;19954;-74
2021/01/06 09:23:33;;;;;;;;;;;;;;;20.44;35.65;99601.03;4411866;32;20441;-72
2021/01/06 09:25:59;;;;;;;;;;;;;;;20.47;35.48;99601.03;4434421;32;19960;-76
2021/01/06 09:28:25;;;;;;;;;;;;;;;20.45;35.77;99598.41;4413788;32;19970;-77
2021/01/06 09:30:51;;;;;;;;;;;;;;;20.48;35.69;99608.06;4419781;32;19951;-69
2021/01/06 09:33:17;;;;;;;;;;;;;;;20.50;35.59;99601.91;4406883;32;19989;-71
2021/01/06 09:35:43;;;;;;;;;;;;;;;20.48;35.87;99605.41;4411097;32;19935;-74
2021/01/06 09:38:09;;;;;;;;;;;;;;;20.45;36.06;99611.63;4416432;32;19960;-70
2021/01/06 09:40:35;;;;;;;;;;;;;;;20.48;35.62;99616.00;4400465;32;20014;-71
2021/01/06 09:43:01;;;;;;;;;;;;;;;20.50;36.03;99607.19;4400397;32;19986;-70
2021/01/06 09:45:27;;;;;;;;;;;;;;;20.41;34.01;99604.53;4399255;32;20295;-70
2021/01/06 09:47:52;;;;;;;;;;;;;;;20.28;34.56;99605.44;4393542;32;19958;-69
2021/01/06 09:50:18;;;;;;;;;;;;;;;20.12;34.30;99610.72;4395235;32;19963;-70
2021/01/06 09:52:44;;;;;;;;;;;;;;;19.97;34.45;99611.56;4399657;32;19950;-76
2021/01/06 09:55:10;;;;;;;;;;;;;;;19.88;34.85;99607.13;4403050;32;19951;-75
2021/01/06 09:57:36;;;;;;;;;;;;;;;19.96;35.03;99608.94;4405414;32;20321;-72
2021/01/06 10:00:02;;;;;;;;;;;;;;;20.07;35.76;99607.19;4422808;32;19957;-76
2021/01/06 10:02:28;;;;;;;;;;;;;;;20.10;35.03;99612.47;4456000;27;19939;-76
2021/01/06 10:04:54;;;;;;;;;;;;;;;20.03;34.53;99610.69;4622198;27;20331;-76
2021/01/06 10:07:20;;;;;;;;;;;;;;;19.93;34.42;99609.81;4536173;27;19965;-86
2021/01/06 10:09:45;;;;;;;;;;;;;;;19.85;34.45;99607.13;4404545;32;19937;-86
2021/01/06 10:12:12;;;;;;;;;;;;;;;19.79;34.52;99607.97;4404352;32;19961;-86
2021/01/06 10:14:37;;;;;;;;;;;;;;;19.77;34.52;99608.84;4406536;32;19941;-86
2021/01/06 10:17:03;;;;;;;;;;;;;;;19.74;34.58;99599.13;4417460;32;19931;-86
2021/01/06 10:19:29;;;;;;;;;;;;;;;19.72;34.54;99600.03;4426434;27;19959;-86
2021/01/06 10:21:55;;;;;;;;;;;;;;;19.70;34.52;99607.06;4382561;32;19958;-87
2021/01/06 10:24:21;;;;;;;;;;;;;;;19.71;34.44;99604.41;4379442;32;20028;-86
2021/01/06 10:26:47;;;;;;;;;;;;;;;19.73;34.34;99597.37;4380459;32;19985;-84
2021/01/06 10:29:13;;;;;;;;;;;;;;;19.80;34.56;99595.63;4379725;32;20406;-84
2021/01/06 10:31:39;;;;;;;;;;;;;;;19.87;34.66;99602.72;4381002;32;20038;-84
2021/01/06 10:34:05;;;;;;;;;;;;;;;19.93;34.85;99600.09;4379799;32;19962;-85
2021/01/06 10:36:30;;;;;;;;;;;;;;;19.98;35.37;99596.59;4379994;32;19954;-86
2021/01/06 10:38:57;;;;;;;;;;;;;;;20.01;35.40;99596.59;4380731;32;20060;-87
2021/01/06 10:41:24;;;;;;;;;;;;;;;20.04;35.56;99594.84;4379610;32;20061;-87
2021/01/06 10:43:50;;;;;;;;;;;;;;;20.10;35.65;99588.69;4381290;32;19947;-86
2021/01/06 10:46:15;;;;;;;;;;;;;;;20.14;35.79;99589.56;4379386;32;19969;-87
2021/01/06 10:48:41;;;;;;;;;;;;;;;20.18;35.91;99588.69;4379554;32;20002;-85
2021/01/06 10:51:07;;;;;;;;;;;;;;;20.20;35.96;99582.53;4380161;32;19943;-85
2021/01/06 10:53:33;;;;;;;;;;;;;;;20.21;36.03;99579.00;4380528;32;19955;-88
2021/01/06 10:55:59;;;;;;;;;;;;;;;20.21;36.07;99579.00;4379125;32;19959;-83
2021/01/06 10:58:25;;;;;;;;;;;;;;;20.20;36.07;99577.25;4379892;32;20421;-84
2021/01/06 11:00:51;;;;;;;;;;;;;;;20.17;36.21;99574.56;4380297;32;19955;-83
2021/01/06 11:03:17;;;;;;;;;;;;;;;20.15;36.33;99571.06;4374421;32;19975;-85
2021/01/06 11:05:43;;;;;;;;;;;;;;;20.14;36.39;99569.28;4365774;32;19959;-83
2021/01/06 11:08:08;;;;;;;;;;;;;;;20.14;36.44;99566.66;4364194;32;19951;-84
2021/01/06 11:10:34;;;;;;;;;;;;;;;20.14;36.51;99566.66;4366501;32;19940;-85
2021/01/06 11:13:00;;;;;;;;;;;;;;;20.13;36.54;99564.03;4365428;32;19959;-84
2021/01/06 11:15:26;;;;;;;;;;;;;;;20.13;36.60;99567.53;4364622;32;19952;-85
2021/01/06 11:17:52;;;;;;;;;;;;;;;20.15;36.75;99562.25;4397502;27;19956;-88
2021/01/06 11:20:24;;;;;;;;;;;;;;;20.29;36.59;99559.59;4380300;32;19924;-85
2021/01/06 11:22:51;;;;;;;;;;;;;;;20.42;36.56;99553.41;4419103;27;19966;-74
2021/01/06 11:25:17;;;;;;;;;;;;;;;20.54;36.52;99549.88;4373720;32;20515;-69
2021/01/06 11:27:43;;;;;;;;;;;;;;;20.61;36.57;99542.81;4399979;32;19955;-68
2021/01/06 11:30:09;;;;;;;;;;;;;;;20.61;36.49;99542.81;4391459;32;19968;-67
2021/01/06 11:32:35;;;;;;;;;;;;;;;20.59;36.36;99534.03;4384696;32;19967;-70
2021/01/06 11:35:01;;;;;;;;;;;;;;;20.59;36.45;99532.25;4381160;32;20369;-69
2021/01/06 11:37:27;;;;;;;;;;;;;;;20.59;36.38;99526.09;4396764;32;20320;-69
2021/01/06 11:39:53;;;;;;;;;;;;;;;20.59;36.44;99526.09;4375028;32;20002;-70
2021/01/06 11:42:20;;;;;;;;;;;;;;;20.59;36.46;99529.59;4370821;32;19964;-70
2021/01/06 11:44:46;;;;;;;;;;;;;;;20.60;36.52;99522.56;4371549;32;20001;-68
2021/01/06 11:47:12;;;;;;;;;;;;;;;20.58;36.56;99517.25;4370539;32;19967;-68
2021/01/06 11:49:37;;;;;;;;;;;;;;;20.59;36.59;99523.44;4384242;32;19963;-68
2021/01/06 11:52:03;;;;;;;;;;;;;;;20.58;36.63;99516.38;4383481;32;19984;-69
2021/01/06 11:54:29;;;;;;;;;;;;;;;20.57;36.69;99517.28;4370447;32;19961;-68
2021/01/06 11:56:55;;;;;;;;;;;;;;;20.56;36.71;99515.50;4371699;32;20004;-68
2021/01/06 11:59:21;;;;;;;;;;;;;;;20.47;36.86;99512.00;4384203;32;19969;-68
2021/01/06 12:01:47;;;;;;;;;;;;;;;20.38;36.93;99530.50;4384787;32;19988;-69
2021/01/06 12:04:13;;;;;;;;;;;;;;;20.32;36.95;99512.03;4369627;32;19958;-68
2021/01/06 12:06:39;;;;;;;;;;;;;;;20.29;37.13;99514.66;4384382;32;19943;-68
2021/01/06 12:09:07;;;;;;;;;;;;;;;20.25;37.17;99505.87;4382324;32;19969;-69
2021/01/06 12:11:33;;;;;;;;;;;;;;;20.21;37.30;99504.09;4385402;32;20012;-69
2021/01/06 12:13:58;;;;;;;;;;;;;;;20.18;37.43;99510.25;4383950;32;19959;-68
2021/01/06 12:16:24;;;;;;;;;;;;;;;20.16;37.52;99506.72;4382520;32;19992;-68
2021/01/06 12:18:50;;;;;;;;;;;;;;;20.14;37.60;99508.50;4383996;32;20286;-69
2021/01/06 12:21:16;;;;;;;;;;;;;;;20.13;37.64;99501.44;4371305;32;19958;-69
2021/01/06 12:23:42;;;;;;;;;;;;;;;20.13;37.68;99503.22;4384343;32;19958;-69
2021/01/06 12:26:08;;;;;;;;;;;;;;;20.11;37.74;99497.94;4383422;32;19939;-68
2021/01/06 12:28:34;;;;;;;;;;;;;;;20.12;37.77;99504.97;4382657;32;19955;-68
2021/01/06 12:31:00;;;;;;;;;;;;;;;20.13;37.66;99506.75;4383857;32;19951;-68
2021/01/06 12:33:25;;;;;;;;;;;;;;;20.13;37.77;99493.53;4394123;32;20624;-68
2021/01/06 12:35:51;;;;;;;;;;;;;;;20.13;37.79;99501.44;4383358;32;19977;-68
2021/01/06 12:38:17;;;;;;;;;;;;;;;20.12;37.83;99497.06;4369517;32;19965;-69
2021/01/06 12:40:43;;;;;;;;;;;;;;;20.12;37.85;99491.75;4383809;32;20000;-68
2021/01/06 12:43:09;;;;;;;;;;;;;;;20.12;37.90;99493.50;4387410;32;19957;-68
2021/01/06 12:45:35;;;;;;;;;;;;;;;20.12;37.91;99504.97;4384595;32;19939;-68
2021/01/06 12:48:02;;;;;;;;;;;;;;;20.11;37.92;99495.28;4382518;32;20321;-70
2021/01/06 12:50:28;;;;;;;;;;;;;;;20.12;37.95;99488.22;4368591;32;20035;-68
2021/01/06 12:52:54;;;;;;;;;;;;;;;20.11;37.97;99503.22;4374165;32;19966;-69
2021/01/06 12:55:20;;;;;;;;;;;;;;;20.10;38.00;99495.28;4382967;32;19965;-69
2021/01/06 12:57:46;;;;;;;;;;;;;;;20.08;38.02;99498.81;4366683;32;20001;-68
2021/01/06 13:00:12;;;;;;;;;;;;;;;20.09;38.03;99499.69;4380672;32;19965;-69
2021/01/06 13:02:37;;;;;;;;;;;;;;;20.07;38.05;99502.34;4383422;32;19962;-68
2021/01/06 13:05:03;;;;;;;;;;;;;;;20.08;38.05;99498.81;4368872;32;20056;-68
2021/01/06 13:07:29;;;;;;;;;;;;;;;20.09;38.05;99507.63;4383590;32;19959;-68
2021/01/06 13:09:55;;;;;;;;;;;;;;;20.08;38.07;99497.94;4370338;32;19985;-69
2021/01/06 13:12:21;;;;;;;;;;;;;;;20.09;38.05;99505.00;4382792;32;19985;-69
2021/01/06 13:14:47;;;;;;;;;;;;;;;20.07;38.07;99501.47;4384135;32;19962;-70
2021/01/06 13:17:13;;;;;;;;;;;;;;;20.08;38.07;99497.94;4368888;32;19955;-68
2021/01/06 13:19:39;;;;;;;;;;;;;;;20.08;38.07;99504.09;4383380;32;19951;-68
2021/01/06 13:22:05;;;;;;;;;;;;;;;20.07;37.71;99502.34;4383165;32;19954;-69
2021/01/06 13:24:30;;;;;;;;;;;;;;;20.06;37.84;99500.56;4384501;32;20319;-68
2021/01/06 13:26:56;;;;;;;;;;;;;;;20.07;37.97;99485.63;4382545;32;19954;-68
2021/01/06 13:29:22;;;;;;;;;;;;;;;20.06;38.01;99492.66;4383227;32;21051;-69
2021/01/06 13:31:48;;;;;;;;;;;;;;;20.06;38.06;99499.69;4382838;32;19954;-68
2021/01/06 13:34:14;;;;;;;;;;;;;;;20.04;38.10;99494.41;4382698;32;19949;-69
2021/01/06 13:36:40;;;;;;;;;;;;;;;20.04;38.12;99502.34;4381732;32;20368;-68
2021/01/06 13:39:06;;;;;;;;;;;;;;;20.04;38.13;99501.44;4380831;32;19990;-69
2021/01/06 13:41:32;;;;;;;;;;;;;;;20.03;38.14;99504.97;4383233;32;19966;-68
2021/01/06 13:43:58;;;;;;;;;;;;;;;20.03;38.16;99504.97;4389477;32;20399;-67
2021/01/06 13:46:24;;;;;;;;;;;;;;;20.03;38.18;99505.87;4396239;32;20049;-67
2021/01/06 13:48:50;;;;;;;;;;;;;;;20.03;38.20;99504.97;4401741;32;19966;-67
2021/01/06 13:51:16;;;;;;;;;;;;;;;20.04;38.20;99509.38;4401309;32;20024;-67
2021/01/06 13:53:42;;;;;;;;;;;;;;;20.05;38.19;99505.84;4387317;32;20015;-67
2021/01/06 13:56:07;;;;;;;;;;;;;;;20.04;38.09;99507.63;4402839;32;19991;-66
2021/01/06 13:58:35;;;;;;;;;;;;;;;20.04;38.13;99512.03;4402373;32;19942;-67
2021/01/06 14:01:01;;;;;;;;;;;;;;;20.03;38.16;99515.53;4395557;32;19962;-70
2021/01/06 14:03:26;;;;;;;;;;;;;;;20.05;38.20;99513.78;4393068;32;19954;-71
2021/01/06 14:05:52;;;;;;;;;;;;;;;20.25;38.13;99515.53;4402907;32;19972;-70
2021/01/06 14:08:18;;;;;;;;;;;;;;;20.42;38.06;99510.25;4399710;32;19951;-69
2021/01/06 14:10:44;;;;;;;;;;;;;;;20.54;38.00;99512.87;4401021;32;19957;-70
2021/01/06 14:13:10;;;;;;;;;;;;;;;20.65;37.94;99518.13;4400292;32;20015;-70
2021/01/06 14:15:36;;;;;;;;;;;;;;;20.71;37.86;99515.47;4400685;32;19965;-70
2021/01/06 14:18:02;;;;;;;;;;;;;;;20.77;37.80;99519.88;4401160;32;20006;-71
2021/01/06 14:20:28;;;;;;;;;;;;;;;20.83;37.75;99519.88;4404181;32;20028;-74
2021/01/06 14:22:54;;;;;;;;;;;;;;;20.89;37.67;99527.81;4388993;32;19958;-74
2021/01/06 14:25:20;;;;;;;;;;;;;;;20.94;37.58;99525.12;4403116;32;19951;-73
2021/01/06 14:27:46;;;;;;;;;;;;;;;20.97;37.50;99525.12;4405048;32;19964;-77
2021/01/06 14:30:12;;;;;;;;;;;;;;;20.99;37.44;99531.28;4406374;32;19973;-75
2021/01/06 14:32:38;;;;;;;;;;;;;;;21.03;37.36;99533.03;4407501;32;19962;-70
2021/01/06 14:35:05;;;;;;;;;;;;;;;21.04;37.41;99524.19;4401513;32;19946;-72
2021/01/06 14:37:31;;;;;;;;;;;;;;;21.03;37.43;99527.72;4381266;32;20377;-72
2021/01/06 14:39:56;;;;;;;;;;;;;;;20.99;37.34;99525.09;4381288;32;19951;-73
2021/01/06 14:42:22;;;;;;;;;;;;;;;20.95;37.27;99523.34;4381301;32;20054;-72
2021/01/06 14:44:48;;;;;;;;;;;;;;;20.89;35.51;99527.81;4383104;32;19980;-73
2021/01/06 14:47:14;;;;;;;;;;;;;;;20.74;36.37;99531.34;4386012;32;19954;-72
2021/01/06 14:49:40;;;;;;;;;;;;;;;20.77;36.66;99519.88;4387376;32;19954;-75
2021/01/06 14:52:06;;;;;;;;;;;;;;;20.79;36.87;99523.38;4384367;32;19950;-72
2021/01/06 14:54:32;;;;;;;;;;;;;;;20.84;36.82;99526.91;4378751;32;20252;-71
2021/01/06 14:56:58;;;;;;;;;;;;;;;20.86;36.81;99534.88;4384687;32;19978;-72
2021/01/06 14:59:24;;;;;;;;;;;;;;;20.87;36.79;99526.03;4379178;32;19966;-69
2021/01/06 15:01:49;;;;;;;;;;;;;;;20.87;36.72;99526.03;4380592;32;20517;-69
2021/01/06 15:04:15;;;;;;;;;;;;;;;20.86;36.68;99529.56;4380267;32;19990;-69
2021/01/06 15:06:41;;;;;;;;;;;;;;;20.85;36.65;99520.72;4379860;32;19970;-69
2021/01/06 15:09:07;;;;;;;;;;;;;;;20.84;36.63;99529.56;4379687;32;20018;-71
2021/01/06 15:11:33;;;;;;;;;;;;;;;20.84;36.57;99523.41;4380697;32;20011;-72
2021/01/06 15:13:59;;;;;;;;;;;;;;;20.84;36.53;99523.41;4380443;32;20339;-71
2021/01/06 15:16:25;;;;;;;;;;;;;;;20.83;36.51;99530.44;4378456;32;20015;-72
2021/01/06 15:18:51;;;;;;;;;;;;;;;20.83;36.46;99529.59;4379611;32;19963;-69
2021/01/06 15:21:16;;;;;;;;;;;;;;;20.83;36.43;99526.94;4365964;32;20377;-69
2021/01/06 15:23:43;;;;;;;;;;;;;;;20.84;36.39;99526.06;4365836;32;20003;-69
2021/01/06 15:26:09;;;;;;;;;;;;;;;20.76;36.40;99529.56;4364986;32;20003;-69
2021/01/06 15:28:35;;;;;;;;;;;;;;;20.64;36.50;99526.94;4366884;32;19973;-70
2021/01/06 15:31:01;;;;;;;;;;;;;;;20.54;36.66;99522.53;4381580;32;19966;-68
2021/01/06 15:33:27;;;;;;;;;;;;;;;20.45;36.79;99524.34;4379290;32;19986;-69
2021/01/06 15:35:52;;;;;;;;;;;;;;;20.40;36.85;99527.87;4379889;32;19970;-69
2021/01/06 15:38:18;;;;;;;;;;;;;;;20.36;36.96;99540.22;4379824;32;19970;-68
2021/01/06 15:40:44;;;;;;;;;;;;;;;20.33;36.99;99529.66;4380665;32;20612;-69
2021/01/06 15:43:10;;;;;;;;;;;;;;;20.32;37.05;99535.81;4380725;32;20014;-69
2021/01/06 15:45:36;;;;;;;;;;;;;;;20.31;37.04;99536.69;4381100;32;19962;-69
2021/01/06 15:48:02;;;;;;;;;;;;;;;20.30;37.01;99534.91;4380975;32;20304;-69
2021/01/06 15:50:28;;;;;;;;;;;;;;;20.30;37.03;99534.91;4379124;32;20421;-69
2021/01/06 15:52:54;;;;;;;;;;;;;;;20.30;37.04;99534.91;4392608;32;19997;-69
2021/01/06 15:55:19;;;;;;;;;;;;;;;20.30;37.10;99534.91;4395718;32;20002;-69
2021/01/06 15:57:45;;;;;;;;;;;;;;;20.30;37.19;99541.09;4397179;32;20010;-69
2021/01/06 16:00:11;;;;;;;;;;;;;;;20.30;37.20;99540.19;4394154;32;20149;-69
2021/01/06 16:02:37;;;;;;;;;;;;;;;20.30;37.17;99540.19;4396321;32;19958;-69
2021/01/06 16:05:03;;;;;;;;;;;;;;;20.30;37.17;99540.19;4395630;32;19969;-69
2021/01/06 16:07:29;;;;;;;;;;;;;;;20.29;37.25;99539.34;4395670;32;19954;-69
2021/01/06 16:09:55;;;;;;;;;;;;;;;20.30;37.31;99542.84;4394750;32;20561;-69
2021/01/06 16:12:21;;;;;;;;;;;;;;;20.31;37.33;99536.69;4386772;32;19955;-68
2021/01/06 16:14:47;;;;;;;;;;;;;;;20.29;37.35;99538.44;4380528;32;19961;-68
2021/01/06 16:17:13;;;;;;;;;;;;;;;20.28;37.38;99542.88;4366665;32;19954;-68
2021/01/06 16:19:39;;;;;;;;;;;;;;;20.28;37.40;99542.88;4366213;32;19959;-68
2021/01/06 16:22:05;;;;;;;;;;;;;;;20.27;37.46;99540.22;4378042;32;19962;-69
2021/01/06 16:24:31;;;;;;;;;;;;;;;20.28;37.48;99547.25;4394854;32;19985;-68
2021/01/06 16:26:57;;;;;;;;;;;;;;;20.27;37.48;99545.50;4369895;32;19988;-68
2021/01/06 16:29:22;;;;;;;;;;;;;;;20.26;37.50;99544.63;4388074;32;20111;-68
2021/01/06 16:31:48;;;;;;;;;;;;;;;20.26;37.52;99546.38;4397245;32;20022;-68
2021/01/06 16:34:14;;;;;;;;;;;;;;;20.26;37.53;99546.38;4396156;32;20006;-68
2021/01/06 16:36:40;;;;;;;;;;;;;;;20.26;37.57;99546.38;4396274;32;20574;-68
2021/01/06 16:39:06;;;;;;;;;;;;;;;20.25;37.58;99548.16;4396115;32;20006;-68
2021/01/06 16:41:38;;;;;;;;;;;;;;;20.25;37.61;99550.81;4395888;32;19966;-68
2021/01/06 16:44:05;;;;;;;;;;;;;;;20.25;37.66;99542.88;4395688;32;20355;-68
2021/01/06 16:46:31;;;;;;;;;;;;;;;20.24;37.70;99550.81;4395512;32;19966;-68
2021/01/06 16:48:56;;;;;;;;;;;;;;;20.24;37.75;99550.81;4393554;32;20275;-68
2021/01/06 16:51:22;;;;;;;;;;;;;;;20.24;37.77;99556.09;4381396;32;20038;-68
2021/01/06 16:53:48;;;;;;;;;;;;;;;20.24;37.79;99548.16;4395280;32;19958;-68
2021/01/06 16:56:14;;;;;;;;;;;;;;;20.22;37.82;99554.31;4395803;32;19958;-68
2021/01/06 16:58:40;;;;;;;;;;;;;;;20.22;37.85;99556.06;4394297;32;19992;-68
2021/01/06 17:01:06;;;;;;;;;;;;;;;20.21;37.88;99559.59;4395895;32;20345;-68
2021/01/06 17:03:32;;;;;;;;;;;;;;;20.21;37.90;99567.53;4396239;32;20323;-68
2021/01/06 17:05:58;;;;;;;;;;;;;;;20.20;37.95;99556.09;4395644;32;19947;-68
2021/01/06 17:08:24;;;;;;;;;;;;;;;20.19;37.98;99564.91;4394395;32;20366;-68
2021/01/06 17:10:50;;;;;;;;;;;;;;;20.20;38.00;99571.97;4380534;32;19995;-68
2021/01/06 17:13:17;;;;;;;;;;;;;;;20.20;38.05;99569.31;4394368;32;20378;-68
2021/01/06 17:15:43;;;;;;;;;;;;;;;20.19;38.07;99574.59;4396597;32;20304;-68
2021/01/06 17:18:09;;;;;;;;;;;;;;;20.19;38.11;99575.47;4396830;32;20305;-68
2021/01/06 17:20:35;;;;;;;;;;;;;;;20.20;38.11;99571.06;4399087;32;19971;-68
2021/01/06 17:23:01;;;;;;;;;;;;;;;20.18;38.15;99571.03;4388419;32;19963;-68
2021/01/06 17:25:27;;;;;;;;;;;;;;;20.18;38.18;99576.34;4383691;32;20299;-68
2021/01/06 17:27:52;;;;;;;;;;;;;;;20.18;38.21;99573.69;4384590;32;19962;-68
2021/01/06 17:30:20;;;;;;;;;;;;;;;20.18;38.23;99576.34;4381895;32;19972;-69
2021/01/06 17:32:46;;;;;;;;;;;;;;;20.17;38.25;99574.56;4397760;32;20014;-68
2021/01/06 17:35:12;;;;;;;;;;;;;;;20.17;38.27;99577.22;4384706;32;19977;-68
2021/01/06 17:37:38;;;;;;;;;;;;;;;20.17;38.31;99577.22;4398810;32;19977;-67
2021/01/06 17:40:04;;;;;;;;;;;;;;;20.18;38.36;99589.56;4398039;32;19987;-68
2021/01/06 17:42:30;;;;;;;;;;;;;;;20.18;38.36;99591.34;4398939;32;19935;-68
2021/01/06 17:44:55;;;;;;;;;;;;;;;20.17;38.40;99586.94;4399122;32;20438;-68
2021/01/06 17:47:21;;;;;;;;;;;;;;;20.16;38.45;99588.69;4385092;32;19977;-68
2021/01/06 17:49:47;;;;;;;;;;;;;;;20.17;38.47;99587.78;4398785;32;19962;-68
2021/01/06 17:52:13;;;;;;;;;;;;;;;20.16;38.47;99590.44;4398006;32;20315;-68
2021/01/06 17:54:39;;;;;;;;;;;;;;;20.16;38.50;99585.16;4396710;32;19974;-68
2021/01/06 17:57:05;;;;;;;;;;;;;;;20.16;38.52;99596.59;4398193;32;20453;-68
2021/01/06 17:59:31;;;;;;;;;;;;;;;20.16;38.56;99591.31;4395692;32;20609;-68
2021/01/06 18:01:57;;;;;;;;;;;;;;;20.16;38.59;99591.31;4397686;32;20031;-67
2021/01/06 18:04:22;;;;;;;;;;;;;;;20.16;38.62;99590.44;4398315;32;20033;-68
2021/01/06 18:06:51;;;;;;;;;;;;;;;20.14;38.64;99593.09;4384353;32;19962;-67
2021/01/06 18:09:20;;;;;;;;;;;;;;;20.15;38.65;99597.50;4383449;32;19963;-68
2021/01/06 18:11:46;;;;;;;;;;;;;;;20.16;38.67;99601.88;4398294;32;20467;-68
2021/01/06 18:14:12;;;;;;;;;;;;;;;20.14;38.70;99603.66;4397313;32;19955;-68
2021/01/06 18:16:38;;;;;;;;;;;;;;;20.14;38.73;99603.66;4398964;32;20785;-68
2021/01/06 18:19:04;;;;;;;;;;;;;;;20.13;38.75;99599.25;4397676;32;20005;-68
2021/01/06 18:21:29;;;;;;;;;;;;;;;20.15;38.74;99593.97;4399074;32;19963;-68
2021/01/06 18:23:55;;;;;;;;;;;;;;;20.15;38.77;99600.13;4399189;32;20382;-68
2021/01/06 18:26:21;;;;;;;;;;;;;;;20.14;38.80;99601.00;4388597;32;19958;-68
2021/01/06 18:28:47;;;;;;;;;;;;;;;20.14;38.83;99608.94;4382427;32;19990;-68
2021/01/06 18:31:13;;;;;;;;;;;;;;;20.14;38.86;99608.06;4380988;32;19950;-68
2021/01/06 18:33:42;;;;;;;;;;;;;;;20.14;38.88;99608.94;4382930;32;19962;-68
2021/01/06 18:36:09;;;;;;;;;;;;;;;20.13;38.88;99607.19;4382850;32;19963;-68
2021/01/06 18:38:34;;;;;;;;;;;;;;;20.14;38.90;99616.00;4382831;32;19955;-68
2021/01/06 18:41:00;;;;;;;;;;;;;;;20.13;38.94;99617.75;4383355;32;19961;-68
2021/01/06 18:43:26;;;;;;;;;;;;;;;20.13;38.97;99625.69;4382655;32;19972;-68
2021/01/06 18:45:52;;;;;;;;;;;;;;;20.13;39.00;99627.47;4369718;32;19963;-67
2021/01/06 18:48:18;;;;;;;;;;;;;;;20.13;39.01;99624.81;4383627;32;20293;-68
2021/01/06 18:50:44;;;;;;;;;;;;;;;20.13;39.03;99628.31;4383094;32;19951;-68
2021/01/06 18:53:10;;;;;;;;;;;;;;;20.12;39.04;99629.22;4383148;32;20023;-68
2021/01/06 18:55:37;;;;;;;;;;;;;;;20.12;39.10;99618.63;4382855;32;19951;-68
2021/01/06 18:58:02;;;;;;;;;;;;;;;20.12;39.07;99618.63;4382390;32;19954;-68
2021/01/06 19:00:28;;;;;;;;;;;;;;;20.12;39.12;99623.94;4383039;32;20067;-68
2021/01/06 19:02:54;;;;;;;;;;;;;;;20.12;39.11;99618.63;4375961;32;20012;-68
2021/01/06 19:05:20;;;;;;;;;;;;;;;20.12;39.13;99621.28;4397439;32;19963;-68
2021/01/06 19:07:46;;;;;;;;;;;;;;;20.12;39.14;99617.75;4398485;32;20041;-68
2021/01/06 19:10:12;;;;;;;;;;;;;;;20.11;39.14;99624.81;4397386;32;19955;-68
2021/01/06 19:12:38;;;;;;;;;;;;;;;20.11;39.16;99622.16;4397544;32;19962;-67
2021/01/06 19:15:04;;;;;;;;;;;;;;;20.11;39.16;99622.16;4397791;32;19974;-68
2021/01/06 19:17:30;;;;;;;;;;;;;;;20.12;39.17;99633.59;4398181;32;19978;-68
2021/01/06 19:19:56;;;;;;;;;;;;;;;20.11;39.20;99629.19;4397383;32;20057;-68
2021/01/06 19:22:22;;;;;;;;;;;;;;;20.11;39.19;99624.81;4397613;32;19985;-68
2021/01/06 19:24:47;;;;;;;;;;;;;;;20.11;39.19;99624.81;4398238;32;20429;-68
2021/01/06 19:27:13;;;;;;;;;;;;;;;20.11;39.22;99631.84;4394990;32;19983;-68
2021/01/06 19:29:39;;;;;;;;;;;;;;;20.10;39.24;99633.63;4395182;32;19978;-68
2021/01/06 19:32:05;;;;;;;;;;;;;;;20.11;39.20;99632.75;4396565;32;20062;-68
2021/01/06 19:34:33;;;;;;;;;;;;;;;20.12;39.21;99636.25;4394177;32;19958;-70
2021/01/06 19:36:59;;;;;;;;;;;;;;;20.12;39.18;99642.44;4395699;32;19954;-70
2021/01/06 19:39:25;;;;;;;;;;;;;;;20.24;39.01;99643.31;4395409;32;20029;-71
2021/01/06 19:41:51;;;;;;;;;;;;;;;20.34;38.83;99639.81;4380766;32;19991;-71
2021/01/06 19:44:16;;;;;;;;;;;;;;;20.42;38.67;99645.97;4395601;32;20021;-71
2021/01/06 19:46:43;;;;;;;;;;;;;;;20.47;38.58;99646.88;4381326;32;20366;-70
2021/01/06 19:49:09;;;;;;;;;;;;;;;20.50;38.47;99644.22;4392003;32;20052;-70
2021/01/06 19:51:35;;;;;;;;;;;;;;;20.55;38.42;99635.41;4381783;32;20305;-70
2021/01/06 19:54:01;;;;;;;;;;;;;;;20.57;38.36;99649.53;4396908;32;19950;-70
2021/01/06 19:56:27;;;;;;;;;;;;;;;20.59;38.31;99639.81;4395022;32;19954;-68
2021/01/06 19:58:53;;;;;;;;;;;;;;;20.62;38.29;99642.47;4370342;32;19968;-71
2021/01/06 20:01:19;;;;;;;;;;;;;;;20.63;38.26;99641.56;4387195;32;19966;-68
2021/01/06 20:03:45;;;;;;;;;;;;;;;20.64;38.21;99632.75;4380962;32;20026;-70
2021/01/06 20:06:11;;;;;;;;;;;;;;;20.66;38.17;99628.34;4379829;32;20327;-68
2021/01/06 20:08:37;;;;;;;;;;;;;;;20.62;38.18;99631.88;4381272;32;19959;-68
2021/01/06 20:11:03;;;;;;;;;;;;;;;20.49;38.41;99629.25;4381188;32;19947;-68
2021/01/06 20:13:29;;;;;;;;;;;;;;;20.39;38.59;99624.81;4380519;32;19954;-69
2021/01/06 20:15:55;;;;;;;;;;;;;;;20.34;38.71;99616.03;4381718;32;20357;-68
2021/01/06 20:18:21;;;;;;;;;;;;;;;20.30;38.85;99623.06;4382123;32;19955;-68
2021/01/06 20:20:47;;;;;;;;;;;;;;;20.28;38.95;99626.56;4382274;32;19950;-68
2021/01/06 20:23:12;;;;;;;;;;;;;;;20.26;38.99;99633.63;4381429;32;19969;-68
2021/01/06 20:25:38;;;;;;;;;;;;;;;20.25;39.01;99631.88;4381482;32;20067;-68
2021/01/06 20:28:04;;;;;;;;;;;;;;;20.23;39.06;99634.50;4370658;32;19982;-68
2021/01/06 20:30:30;;;;;;;;;;;;;;;20.22;39.10;99632.75;4367297;32;19947;-68
2021/01/06 20:32:56;;;;;;;;;;;;;;;20.21;39.15;99631.88;4391798;32;19963;-68
2021/01/06 20:35:22;;;;;;;;;;;;;;;20.21;39.15;99633.63;4396434;32;19959;-68
2021/01/06 20:37:48;;;;;;;;;;;;;;;20.20;39.18;99630.13;4393886;32;19958;-68
2021/01/06 20:40:14;;;;;;;;;;;;;;;20.20;39.19;99634.50;4380234;32;19977;-68
2021/01/06 20:42:41;;;;;;;;;;;;;;;20.19;39.21;99627.47;4394991;32;20378;-68
2021/01/06 20:45:07;;;;;;;;;;;;;;;20.18;39.22;99629.19;4395798;32;19968;-68
2021/01/06 20:47:33;;;;;;;;;;;;;;;20.18;39.24;99631.84;4383227;32;19955;-68
2021/01/06 20:49:59;;;;;;;;;;;;;;;20.19;39.23;99630.09;4382284;32;19970;-68
2021/01/06 20:52:25;;;;;;;;;;;;;;;20.20;39.22;99632.75;4395260;32;19985;-67
2021/01/06 20:54:51;;;;;;;;;;;;;;;20.20;39.22;99634.50;4382650;32;20275;-68
2021/01/06 20:57:17;;;;;;;;;;;;;;;20.19;39.25;99628.34;4393631;32;19989;-68
2021/01/06 20:59:43;;;;;;;;;;;;;;;20.19;39.25;99632.75;4396455;32;20353;-68
2021/01/06 21:02:09;;;;;;;;;;;;;;;20.19;39.25;99630.09;4375645;32;19970;-68
2021/01/06 21:04:35;;;;;;;;;;;;;;;20.18;39.27;99628.34;4380729;32;19950;-68
2021/01/06 21:07:01;;;;;;;;;;;;;;;20.18;39.29;99631.84;4381868;32;20037;-68
2021/01/06 21:09:27;;;;;;;;;;;;;;;20.18;39.29;99631.84;4380933;32;20025;-68
2021/01/06 21:11:53;;;;;;;;;;;;;;;20.17;39.28;99632.72;4382172;32;19994;-68
2021/01/06 21:14:19;;;;;;;;;;;;;;;20.17;39.31;99635.37;4380465;32;19959;-67
2021/01/06 21:16:45;;;;;;;;;;;;;;;20.16;39.29;99630.97;4381464;32;20335;-67
2021/01/06 21:19:10;;;;;;;;;;;;;;;20.17;39.29;99635.37;4379970;32;19999;-68
2021/01/06 21:21:37;;;;;;;;;;;;;;;20.16;39.32;99633.63;4381073;32;20794;-68
2021/01/06 21:24:02;;;;;;;;;;;;;;;20.14;39.29;99632.72;4379571;32;20386;-68
2021/01/06 21:26:28;;;;;;;;;;;;;;;20.16;39.31;99636.25;4381002;32;20338;-68
2021/01/06 21:28:54;;;;;;;;;;;;;;;20.14;39.29;99635.37;4380642;32;20402;-68
2021/01/06 21:31:20;;;;;;;;;;;;;;;20.15;39.28;99631.84;4377819;32;20029;-67
2021/01/06 21:33:48;;;;;;;;;;;;;;;20.13;39.29;99628.31;4381594;32;20042;-69
2021/01/06 21:36:14;;;;;;;;;;;;;;;20.14;39.27;99629.22;4380453;32;19959;-68